createdAt,value
2023-11-10T00:04:56.329Z,100.00
2023-11-10T00:09:59.396Z,100.00
2023-11-10T00:15:03.794Z,100.00
2023-11-10T00:20:08.858Z,100.00
2023-11-10T00:25:12.557Z,100.00
2023-11-10T00:30:16.894Z,100.00
2023-11-10T00:35:19.732Z,100.00
2023-11-10T00:40:23.015Z,100.00
2023-11-10T00:45:27.202Z,100.00
2023-11-10T00:50:30.607Z,100.00
2023-11-10T00:55:33.427Z,100.00
2023-11-10T01:00:37.586Z,100.00
2023-11-10T01:05:40.849Z,100.00
2023-11-10T01:10:43.735Z,100.00
2023-11-10T01:15:48.082Z,100.00
2023-11-10T01:20:51.110Z,100.00
2023-11-10T01:25:56.227Z,100.00
2023-11-10T01:31:00.670Z,100.00
2023-11-10T01:36:03.542Z,100.00
2023-11-10T01:41:06.441Z,100.00
2023-11-10T01:46:34.716Z,100.00
2023-11-10T01:51:39.073Z,100.00
2023-11-10T01:56:42.108Z,100.00
2023-11-10T02:01:47.237Z,100.00
2023-11-10T02:06:51.793Z,100.00
2023-11-10T02:11:55.008Z,100.00
2023-11-10T02:16:59.220Z,100.00
2023-11-10T02:22:02.374Z,100.00
2023-11-10T02:27:07.340Z,100.00
2023-11-10T02:32:11.233Z,100.00
2023-11-10T02:37:14.618Z,100.00
2023-11-10T02:42:22.942Z,100.00
2023-11-10T02:47:25.798Z,100.00
2023-11-10T02:52:28.663Z,100.00
2023-11-10T02:57:32.851Z,100.00
2023-11-10T03:02:37.908Z,100.00
2023-11-10T03:07:40.796Z,100.00
2023-11-10T03:12:45.133Z,100.00
2023-11-10T03:17:48.738Z,100.00
2023-11-10T03:22:52.219Z,100.00
2023-11-10T03:27:56.569Z,100.00
2023-11-10T03:32:59.988Z,100.00
2023-11-10T03:38:02.944Z,100.00
2023-11-10T03:43:07.239Z,100.00
2023-11-10T03:48:10.026Z,100.00
2023-11-10T03:53:12.843Z,100.00
2023-11-10T03:58:17.017Z,100.00
2023-11-10T04:03:19.867Z,100.00
2023-11-10T04:08:22.683Z,100.00
2023-11-10T04:13:27.007Z,100.00
2023-11-10T04:18:29.916Z,100.00
2023-11-10T04:23:32.724Z,100.00
2023-11-10T04:28:39.390Z,100.00
2023-11-10T04:33:42.289Z,100.00
2023-11-10T04:38:48.892Z,100.00
2023-11-10T04:43:53.145Z,100.00
2023-11-10T04:48:55.963Z,100.00
2023-11-10T04:53:58.906Z,100.00
2023-11-10T04:59:03.348Z,100.00
2023-11-10T05:04:07.163Z,100.00
2023-11-10T05:09:10.498Z,100.00
2023-11-10T05:14:14.665Z,100.00
2023-11-10T05:19:17.503Z,100.00
2023-11-10T05:24:20.542Z,100.00
2023-11-10T05:29:25.104Z,100.00
2023-11-10T05:34:28.018Z,100.00
2023-11-10T05:39:31.676Z,100.00
2023-11-10T05:44:35.889Z,100.00
2023-11-10T05:49:39.346Z,100.00
2023-11-10T05:54:42.542Z,100.00
2023-11-10T05:59:47.540Z,98.79
2023-11-10T06:04:50.608Z,100.00
2023-11-10T06:09:53.520Z,100.00
2023-11-10T06:14:58.658Z,100.00
2023-11-10T06:20:01.490Z,100.00
2023-11-10T06:25:05.215Z,100.00
2023-11-10T06:30:11.201Z,100.00
2023-11-10T06:35:14.243Z,99.06
2023-11-10T06:40:17.336Z,100.00
2023-11-10T06:45:21.521Z,100.00
2023-11-10T06:50:24.493Z,95.73
2023-11-10T06:55:27.723Z,96.66
2023-11-10T07:00:32.004Z,96.29
2023-11-10T07:05:35.053Z,98.55
2023-11-10T07:10:38.188Z,96.96
2023-11-10T07:15:43.771Z,96.30
2023-11-10T07:20:47.661Z,99.26
2023-11-10T07:25:51.818Z,98.57
2023-11-10T07:30:56.063Z,100.00
2023-11-10T07:35:58.894Z,98.28
2023-11-10T07:41:04.516Z,94.49
2023-11-10T07:46:09.056Z,97.46
2023-11-10T07:51:11.938Z,99.61
2023-11-10T07:56:14.756Z,95.73
2023-11-10T08:01:20.125Z,93.99
2023-11-10T08:06:22.907Z,93.56
2023-11-10T08:11:25.813Z,94.92
2023-11-10T08:16:30.760Z,90.35
2023-11-10T08:21:34.850Z,94.16
2023-11-10T08:26:43.532Z,92.79
2023-11-10T08:31:49.235Z,94.94
2023-11-10T08:36:52.272Z,92.69
2023-11-10T08:41:55.109Z,93.59
2023-11-10T08:46:59.242Z,90.59
2023-11-10T08:52:02.104Z,90.11
2023-11-10T08:57:05.548Z,90.53
2023-11-10T09:02:09.935Z,88.83
2023-11-10T09:07:12.792Z,87.38
2023-11-10T09:12:15.594Z,84.93
2023-11-10T09:17:19.986Z,86.68
2023-11-10T09:22:22.832Z,87.75
2023-11-10T09:27:25.657Z,84.67
2023-11-10T09:32:29.823Z,83.19
2023-11-10T09:37:33.812Z,83.89
2023-11-10T09:42:36.723Z,79.73
2023-11-10T09:47:42.349Z,80.07
2023-11-10T09:52:46.767Z,83.40
2023-11-10T09:57:51.743Z,80.74
2023-11-10T10:02:55.995Z,85.64
2023-11-10T10:07:59.022Z,89.99
2023-11-10T10:13:03.070Z,88.98
2023-11-10T10:18:10.230Z,90.57
2023-11-10T10:23:13.206Z,89.25
2023-11-10T10:28:18.953Z,91.30
2023-11-10T10:33:24.191Z,93.39
2023-11-10T10:38:33.630Z,90.24
2023-11-10T10:43:46.947Z,87.22
2023-11-10T10:49:01.662Z,88.18
2023-11-10T10:54:07.043Z,88.07
2023-11-10T10:59:09.831Z,85.83
2023-11-10T11:04:29.245Z,82.98
2023-11-10T11:09:51.955Z,78.80
2023-11-10T11:15:01.404Z,77.92
2023-11-10T11:20:07.318Z,75.17
2023-11-10T11:25:11.347Z,76.21
2023-11-10T11:30:16.372Z,75.95
2023-11-10T11:35:20.612Z,75.91
2023-11-10T11:40:35.090Z,77.81
2023-11-10T11:45:39.869Z,76.98
2023-11-10T11:50:44.027Z,79.24
2023-11-10T11:55:51.878Z,76.08
2023-11-10T12:00:55.186Z,79.05
2023-11-10T12:05:59.482Z,81.64
2023-11-10T12:11:02.372Z,78.50
2023-11-10T12:16:05.845Z,78.66
2023-11-10T12:21:10.119Z,78.77
2023-11-10T12:26:13.294Z,79.19
2023-11-10T12:31:16.716Z,78.63
2023-11-10T12:36:21.379Z,79.74
2023-11-10T12:41:24.393Z,82.80
2023-11-10T12:46:27.534Z,79.72
2023-11-10T12:51:34.292Z,80.13
2023-11-10T12:56:38.863Z,76.51
2023-11-10T13:01:44.295Z,78.78
2023-11-10T13:06:49.180Z,75.02
2023-11-10T13:11:52.358Z,72.13
2023-11-10T13:16:55.430Z,72.49
2023-11-10T13:21:59.831Z,74.22
2023-11-10T13:27:06.783Z,74.27
2023-11-10T13:32:14.232Z,73.83
2023-11-10T13:37:21.526Z,73.02
2023-11-10T13:42:24.336Z,75.00
2023-11-10T13:47:27.197Z,73.29
2023-11-10T13:52:31.415Z,74.62
2023-11-10T13:57:34.924Z,74.23
2023-11-10T14:02:37.981Z,73.36
2023-11-10T14:07:42.290Z,70.85
2023-11-10T14:12:49.410Z,74.52
2023-11-10T14:17:52.359Z,76.47
2023-11-10T14:22:56.597Z,75.59
2023-11-10T14:27:59.732Z,75.94
2023-11-10T14:33:04.468Z,74.70
2023-11-10T14:38:09.386Z,75.38
2023-11-10T14:43:15.448Z,74.98
2023-11-10T14:48:19.696Z,76.53
2023-11-10T14:53:26.388Z,75.56
2023-11-10T14:58:29.286Z,77.54
2023-11-10T15:03:32.370Z,76.61
2023-11-10T15:08:37.060Z,79.22
2023-11-10T15:13:39.903Z,78.87
2023-11-10T15:18:42.859Z,78.06
2023-11-10T15:23:49.781Z,77.03
2023-11-10T15:28:52.567Z,77.13
2023-11-10T15:33:55.562Z,80.19
2023-11-10T15:39:09.745Z,80.47
2023-11-10T15:44:16.573Z,82.13
2023-11-10T15:49:20.168Z,82.86
2023-11-10T15:54:24.533Z,83.75
2023-11-10T15:59:30.389Z,83.74
2023-11-10T16:04:33.289Z,80.49
2023-11-10T16:09:37.646Z,80.43
2023-11-10T16:14:40.844Z,84.38
2023-11-10T16:19:43.754Z,80.15
2023-11-10T16:24:50.151Z,80.78
2023-11-10T16:29:53.150Z,80.75
2023-11-10T16:34:55.975Z,78.12
2023-11-10T16:40:00.281Z,81.21
2023-11-10T16:45:03.461Z,83.99
2023-11-10T16:50:08.078Z,83.26
2023-11-10T16:55:12.386Z,83.14
2023-11-10T17:00:17.179Z,85.74
2023-11-10T17:05:23.525Z,85.46
2023-11-10T17:10:31.379Z,83.94
2023-11-10T17:15:34.720Z,84.23
2023-11-10T17:20:37.603Z,87.20
2023-11-10T17:25:41.914Z,88.94
2023-11-10T17:30:45.197Z,83.84
2023-11-10T17:35:48.479Z,83.53
2023-11-10T17:40:52.666Z,86.07
2023-11-10T17:45:55.639Z,86.78
2023-11-10T17:51:04.106Z,84.09
2023-11-10T17:56:09.143Z,86.21
2023-11-10T18:01:12.301Z,89.07
2023-11-10T18:06:16.246Z,88.98
2023-11-10T18:11:39.321Z,90.71
2023-11-10T18:16:45.445Z,89.69
2023-11-10T18:21:51.340Z,94.11
2023-11-10T18:26:56.148Z,94.35
2023-11-10T18:32:00.577Z,95.32
2023-11-10T18:37:05.014Z,93.60
2023-11-10T18:42:09.498Z,99.68
2023-11-10T18:47:12.800Z,96.16
2023-11-10T18:52:16.123Z,96.41
2023-11-10T18:57:20.490Z,96.56
2023-11-10T19:02:23.396Z,98.70
2023-11-10T19:07:26.347Z,100.00
2023-11-10T19:12:31.043Z,100.00
2023-11-10T19:17:34.315Z,100.00
2023-11-10T19:22:48.476Z,100.00
2023-11-10T19:27:52.855Z,99.08
2023-11-10T19:32:56.230Z,100.00
2023-11-10T19:38:00.390Z,100.00
2023-11-10T19:43:05.264Z,100.00
2023-11-10T19:48:08.388Z,100.00
2023-11-10T19:53:12.576Z,100.00
2023-11-10T20:03:22.981Z,98.78
2023-11-10T20:08:26.021Z,100.00
2023-11-10T20:13:31.655Z,99.27
2023-11-10T20:18:35.893Z,93.87
2023-11-10T20:23:40.094Z,100.00
2023-11-10T20:28:44.757Z,96.14
2023-11-10T20:33:47.860Z,95.67
2023-11-10T20:38:52.257Z,95.46
2023-11-10T20:43:56.712Z,100.00
2023-11-10T20:48:59.876Z,96.64
2023-11-10T20:54:05.080Z,95.43
2023-11-10T20:59:12.587Z,97.43
2023-11-10T21:04:16.997Z,100.00
2023-11-10T21:09:19.979Z,97.91
2023-11-10T21:14:25.445Z,100.00
2023-11-10T21:19:28.430Z,100.00
2023-11-10T21:24:31.444Z,100.00
2023-11-10T21:29:35.822Z,99.74
2023-11-10T21:34:39.019Z,100.00
2023-11-10T21:39:42.167Z,99.39
2023-11-10T21:44:46.446Z,99.01
2023-11-10T21:49:49.514Z,99.04
2023-11-10T21:54:55.565Z,97.21
2023-11-10T21:59:59.916Z,95.08
2023-11-10T22:05:02.821Z,96.88
2023-11-10T22:10:06.609Z,97.54
2023-11-10T22:15:12.279Z,91.57
2023-11-10T22:20:15.161Z,94.84
2023-11-10T22:25:19.206Z,98.25
2023-11-10T22:30:23.403Z,96.72
2023-11-10T22:35:26.304Z,97.33
2023-11-10T22:40:29.871Z,99.96
2023-11-10T22:45:34.184Z,97.60
2023-11-10T22:50:37.754Z,98.71
2023-11-10T22:55:40.630Z,99.20
2023-11-10T23:00:45.720Z,100.00
2023-11-10T23:05:49.076Z,100.00
2023-11-10T23:10:52.625Z,100.00
2023-11-10T23:15:56.975Z,100.00
2023-11-10T23:21:00.048Z,100.00
2023-11-10T23:26:02.864Z,100.00
2023-11-10T23:31:08.156Z,100.00
2023-11-10T23:36:11.351Z,100.00
2023-11-10T23:41:14.285Z,100.00
2023-11-10T23:46:18.506Z,100.00
2023-11-10T23:51:21.394Z,100.00
2023-11-10T23:56:24.225Z,100.00
